Time;durP1;ratioP1;P1;durP2;ratioP2;P2;SDS_P1;SDS_P2;PMS_P1;PMS_P2;Temp;Humidity;BMP_temperature;BMP_pressure;BME280_temperature;BME280_humidity;BME280_pressure;Samples;Min_cycle;Max_cycle;Signal;HPM_P1;HPM_P2
2020/12/18 00:02:26;;;;;;;2.62;2.42;;;;;;;7.25;62.94;101010.81;4319546;33;32937;-87
2020/12/18 00:04:54;;;;;;;10.45;3.25;;;;;;;7.22;62.83;101011.88;4320040;33;33608;-87
2020/12/18 00:07:23;;;;;;;3.28;2.90;;;;;;;7.10;63.44;101009.97;4307804;33;34076;-87
2020/12/18 00:09:52;;;;;;;16.92;3.28;;;;;;;7.01;63.69;101014.97;4343862;33;33691;-87
2020/12/18 00:12:20;;;;;;;6.20;5.25;;;;;;;7.03;63.45;101013.09;4331291;33;32117;-87
2020/12/18 00:14:47;;;;;;;10.60;2.90;;;;;;;7.09;63.28;101016.19;4344919;33;35038;-87
2020/12/18 00:17:14;;;;;;;5.93;3.03;;;;;;;7.25;62.99;101016.97;4319472;33;35169;-87
2020/12/18 00:19:42;;;;;;;6.22;3.87;;;;;;;7.24;62.89;101015.28;4319476;33;34114;-87
2020/12/18 00:22:09;;;;;;;6.10;4.10;;;;;;;7.04;63.67;101018.28;4332449;33;33477;-87
2020/12/18 00:24:37;;;;;;;5.03;2.92;;;;;;;7.03;63.62;101018.38;4331692;33;34906;-87
2020/12/18 00:27:04;;;;;;;3.37;2.35;;;;;;;7.21;62.96;101012.84;4318996;33;33400;-87
2020/12/18 00:29:31;;;;;;;4.70;3.45;;;;;;;7.37;62.58;101012.75;4332116;33;33179;-87
2020/12/18 00:32:03;;;;;;;6.53;5.05;;;;;;;7.38;62.48;101017.09;4332758;33;33910;-87
2020/12/18 00:34:31;;;;;;;6.62;4.18;;;;;;;7.42;62.60;101023.87;4292993;33;35032;-87
2020/12/18 00:36:58;;;;;;;6.65;3.55;;;;;;;7.50;62.29;101011.88;4313113;33;32727;-87
2020/12/18 00:39:25;;;;;;;6.07;3.80;;;;;;;7.45;62.47;101019.25;4331458;33;32571;-87
2020/12/18 00:41:53;;;;;;;;;;;;;;;7.42;62.65;101013.28;4344182;33;33079;-87
2020/12/18 00:44:21;;;;;;;5.18;4.15;;;;;;;7.39;62.80;101027.59;4331781;33;33761;-87
2020/12/18 00:46:48;;;;;;;4.50;2.40;;;;;;;7.36;62.90;101026.91;4320144;33;33469;-87
2020/12/18 00:49:16;;;;;;;7.18;5.10;;;;;;;7.38;62.84;101027.66;4329899;33;31686;-87
2020/12/18 00:51:44;;;;;;;7.65;3.28;;;;;;;7.37;62.89;101025.97;4319565;33;34485;-86
2020/12/18 00:54:11;;;;;;;6.55;5.20;;;;;;;7.50;62.45;101029.56;4306974;33;33403;-87
2020/12/18 00:56:43;;;;;;;5.57;3.85;;;;;;;7.45;62.46;101032.47;4319373;33;33430;-87
2020/12/18 00:59:11;;;;;;;4.97;4.03;;;;;;;7.50;62.35;101029.56;4318971;33;33022;-87
2020/12/18 01:01:39;;;;;;;4.97;4.25;;;;;;;7.51;62.34;101032.12;4318907;33;32270;-87
2020/12/18 01:04:07;;;;;;;5.57;4.50;;;;;;;7.39;63.12;101035.53;4319701;33;34753;-87
2020/12/18 01:06:36;;;;;;;7.68;4.68;;;;;;;7.51;62.65;101033.91;4319214;33;33887;-88
2020/12/18 01:09:03;;;;;;;2.03;1.70;;;;;;;7.52;62.45;101033.81;4306581;33;32644;-87
2020/12/18 01:11:36;;;;;;;6.03;3.05;;;;;;;7.59;62.25;101035.12;4318013;33;34780;-87
2020/12/18 01:14:04;;;;;;;5.35;3.33;;;;;;;7.58;62.27;101032.56;4331930;33;34784;-87
2020/12/18 01:16:33;;;;;;;4.53;3.17;;;;;;;7.58;62.08;101022.84;4306898;33;33456;-87
2020/12/18 01:19:01;;;;;;;5.80;3.40;;;;;;;7.63;62.01;101026.03;4329637;33;34136;-87
2020/12/18 01:21:29;;;;;;;5.60;3.20;;;;;;;7.58;62.10;101025.50;4318649;33;33207;-87
2020/12/18 01:23:57;;;;;;;6.43;4.05;;;;;;;7.62;62.07;101021.69;4330265;33;33545;-87
2020/12/18 01:26:24;;;;;;;4.55;4.12;;;;;;;7.40;62.42;101025.78;4331402;33;34191;-87
2020/12/18 01:28:51;;;;;;;2.28;2.08;;;;;;;7.37;62.49;101029.44;4342645;33;34234;-87
2020/12/18 01:31:20;;;;;;;7.18;4.32;;;;;;;7.27;62.79;101022.19;4342645;33;33744;-87
2020/12/18 01:33:51;;;;;;;5.37;2.83;;;;;;;7.44;62.11;101024.66;4330730;33;33007;-87
2020/12/18 01:36:20;;;;;;;8.05;4.32;;;;;;;7.46;61.97;101022.75;4306213;33;34722;-88
2020/12/18 01:38:49;;;;;;;3.33;2.53;;;;;;;7.43;61.98;101028.22;4309038;33;32650;-87
2020/12/18 01:41:16;;;;;;;5.32;3.65;;;;;;;7.55;61.65;101027.47;4320251;33;34896;-88
2020/12/18 01:43:46;;;;;;;5.57;4.80;;;;;;;7.39;62.48;101034.66;4309741;33;34785;-87
2020/12/18 01:46:14;;;;;;;;;;;;;;;7.45;62.46;101034.28;4310657;33;34132;-87
2020/12/18 01:48:42;;;;;;;6.32;3.60;;;;;;;7.49;62.12;101033.16;4330435;33;31875;-87
2020/12/18 01:51:11;;;;;;;10.80;4.43;;;;;;;7.28;62.89;101039.78;4321171;33;32970;-87
2020/12/18 01:53:40;;;;;;;7.20;4.37;;;;;;;6.91;64.22;101027.88;4307531;33;34534;-87
2020/12/18 01:56:08;;;;;;;5.53;4.07;;;;;;;6.92;64.08;101039.34;4333467;33;33644;-87
2020/12/18 01:58:40;;;;;;;3.95;3.45;;;;;;;7.17;63.36;101032.47;4319579;33;32166;-87
2020/12/18 02:01:10;;;;;;;5.93;3.72;;;;;;;7.13;63.55;101028.31;4308168;33;34729;-87
2020/12/18 02:03:38;;;;;;;6.30;4.45;;;;;;;7.16;63.45;101030.78;4331836;33;34185;-87
2020/12/18 02:06:10;;;;;;;4.55;3.97;;;;;;;7.09;63.74;101026.78;4331525;33;33984;-87
2020/12/18 02:08:41;;;;;;;9.15;3.75;;;;;;;7.13;63.78;101027.47;4320066;33;31476;-87
2020/12/18 02:11:17;;;;;;;7.43;4.68;;;;;;;7.30;63.24;101030.81;4332577;33;33508;-87
2020/12/18 02:13:45;;;;;;;10.20;3.83;;;;;;;7.16;63.65;101033.41;4332652;33;35190;-87
2020/12/18 02:16:12;;;;;;;4.47;2.25;;;;;;;7.08;63.99;101032.19;4345233;33;33998;-87
2020/12/18 02:18:40;;;;;;;;;;;;;;;7.18;63.70;101031.53;4332313;33;32988;-87
2020/12/18 02:21:15;;;;;;;6.87;2.65;;;;;;;6.85;65.26;101035.34;4322067;33;34978;-87
2020/12/18 02:23:47;;;;;;;5.43;4.35;;;;;;;7.11;64.20;101032.00;4332905;33;34330;-88
2020/12/18 02:26:18;;;;;;;10.25;4.72;;;;;;;7.00;64.60;101031.78;4344587;33;33788;-88
2020/12/18 02:28:47;;;;;;;6.47;4.87;;;;;;;7.24;63.88;101033.81;4308884;33;33683;-87
2020/12/18 02:31:15;;;;;;;4.25;3.67;;;;;;;7.24;63.56;101038.25;4308284;33;33626;-87
2020/12/18 02:33:43;;;;;;;7.80;5.03;;;;;;;7.04;64.44;101046.53;4332586;33;35071;-87
2020/12/18 02:36:13;;;;;;;6.93;3.75;;;;;;;7.04;64.73;101039.47;4343892;33;33258;-87
2020/12/18 02:38:41;;;;;;;7.60;4.75;;;;;;;7.22;64.13;101048.06;4332278;33;33364;-87
2020/12/18 02:41:09;;;;;;;4.15;3.40;;;;;;;6.89;64.87;101042.19;4319370;33;32288;-87
2020/12/18 02:43:37;;;;;;;;;;;;;;;6.81;65.42;101052.34;4321597;33;35714;-87
2020/12/18 02:46:04;;;;;;;4.65;3.65;;;;;;;7.07;64.64;101046.38;4320187;33;33250;-87
2020/12/18 02:48:33;;;;;;;4.35;3.25;;;;;;;6.92;65.30;101048.09;4342141;33;33132;-87
2020/12/18 02:51:02;;;;;;;9.70;6.10;;;;;;;6.82;65.56;101041.66;4333369;33;33603;-87
2020/12/18 02:53:30;;;;;;;9.85;5.32;;;;;;;6.86;65.65;101040.56;4342751;33;33515;-87
2020/12/18 02:55:58;;;;;;;7.85;4.72;;;;;;;6.83;65.70;101042.53;4307743;33;33438;-87
2020/12/18 02:58:27;;;;;;;11.63;5.05;;;;;;;7.11;64.84;101032.88;4331047;33;33041;-87
2020/12/18 03:00:57;;;;;;;13.07;4.18;;;;;;;7.13;64.67;101038.91;4297968;33;31784;-87
2020/12/18 03:03:25;;;;;;;7.35;4.20;;;;;;;6.47;67.06;101037.59;4322332;33;34905;-87
2020/12/18 03:05:52;;;;;;;9.02;4.28;;;;;;;6.26;68.03;101037.97;4306007;33;34640;-87
2020/12/18 03:08:22;;;;;;;7.35;4.03;;;;;;;6.76;66.21;101039.41;4322889;33;32054;-87
2020/12/18 03:10:49;;;;;;;4.80;3.50;;;;;;;6.83;66.03;101030.16;4323881;33;32193;-87
2020/12/18 03:13:16;;;;;;;9.48;6.30;;;;;;;6.69;66.81;101030.13;4347598;33;34605;-87
2020/12/18 03:15:44;;;;;;;7.75;3.62;;;;;;;6.96;65.87;101028.47;4333250;33;32782;-87
2020/12/18 03:18:11;;;;;;;5.10;3.78;;;;;;;6.41;67.91;101037.94;4331368;33;31907;-87
2020/12/18 03:20:40;;;;;;;6.28;4.32;;;;;;;6.43;67.28;101037.88;4345257;33;33338;-87
2020/12/18 03:23:10;;;;;;;6.57;3.97;;;;;;;6.15;68.43;101043.03;4343824;33;35266;-87
2020/12/18 03:25:38;;;;;;;4.37;3.47;;;;;;;6.60;67.24;101037.75;4332575;33;34866;-87
2020/12/18 03:28:05;;;;;;;8.02;3.87;;;;;;;6.48;67.16;101038.44;4319333;33;33178;-87
2020/12/18 03:30:33;;;;;;;7.57;4.10;;;;;;;6.22;67.78;101047.00;4319467;33;33456;-87
2020/12/18 03:33:02;;;;;;;4.78;3.28;;;;;;;6.51;66.87;101039.12;4320513;33;35086;-87
2020/12/18 03:35:31;;;;;;;9.75;4.87;;;;;;;6.04;68.55;101048.91;4320199;33;33092;-87
2020/12/18 03:37:59;;;;;;;4.30;3.90;;;;;;;6.47;67.46;101052.59;4319419;33;33612;-87
2020/12/18 03:40:27;;;;;;;5.30;4.68;;;;;;;6.26;67.86;101045.91;4308635;33;33741;-87
2020/12/18 03:42:55;;;;;;;;;;;;;;;5.97;68.89;101051.97;4319532;33;34584;-87
2020/12/18 03:45:23;;;;;;;3.17;1.65;;;;;;;6.42;67.30;101046.75;4320571;33;35115;-87
2020/12/18 03:47:51;;;;;;;5.35;2.33;;;;;;;6.30;67.78;101048.28;4320084;33;32834;-87
2020/12/18 03:50:19;;;;;;;3.05;2.70;;;;;;;6.40;67.50;101052.09;4331483;33;32108;-87
2020/12/18 03:53:03;;;;;;;3.05;2.28;;;;;;;6.16;68.06;101056.12;4322452;33;35536;-87
2020/12/18 03:55:31;;;;;;;1.52;1.35;;;;;;;6.07;68.17;101053.16;4331078;33;34929;-87
2020/12/18 03:58:01;;;;;;;3.35;2.05;;;;;;;5.79;68.43;101061.75;4307014;33;33600;-87
2020/12/18 04:00:28;;;;;;;5.68;4.93;;;;;;;5.97;68.23;101065.19;4331524;33;33851;-87
2020/12/18 04:02:56;;;;;;;7.40;3.08;;;;;;;5.82;68.30;101063.38;4320778;33;34851;-87
2020/12/18 04:05:24;;;;;;;4.10;2.95;;;;;;;5.77;68.33;101071.50;4332012;33;33909;-87
2020/12/18 04:07:52;;;;;;;;;;;;;;;5.89;68.16;101065.56;4320803;33;32164;-87
2020/12/18 04:10:22;;;;;;;7.57;2.72;;;;;;;5.91;67.69;101062.88;4332137;33;32546;-87
2020/12/18 04:12:52;;;;;;;3.78;3.47;;;;;;;6.01;67.62;101061.41;4320294;33;35049;-87
2020/12/18 04:15:20;;;;;;;5.62;3.05;;;;;;;6.09;66.99;101060.06;4333196;33;34213;-87
2020/12/18 04:17:47;;;;;;;7.10;3.50;;;;;;;6.23;66.74;101065.41;4331119;33;33166;-87
2020/12/18 04:20:14;;;;;;;10.90;4.62;;;;;;;6.31;66.47;101068.47;4330596;33;33053;-87
2020/12/18 04:22:44;;;;;;;5.12;3.35;;;;;;;6.52;65.73;101063.78;4331821;33;35051;-87
2020/12/18 04:25:13;;;;;;;10.27;3.62;;;;;;;6.24;66.98;101061.00;4334433;33;34030;-87
2020/12/18 04:27:40;;;;;;;4.43;3.83;;;;;;;6.35;66.54;101062.06;4318431;33;33410;-87
2020/12/18 04:30:08;;;;;;;4.07;2.62;;;;;;;6.49;66.15;101062.16;4307016;33;33994;-87
2020/12/18 04:32:35;;;;;;;4.35;2.83;;;;;;;6.61;66.04;101065.88;4331751;33;35755;-87
2020/12/18 04:35:03;;;;;;;7.57;5.05;;;;;;;6.37;66.84;101062.88;4332206;33;32723;-87
2020/12/18 04:37:32;;;;;;;3.17;2.22;;;;;;;6.63;66.01;101064.00;4331383;33;32794;-87
2020/12/18 04:40:01;;;;;;;4.00;1.87;;;;;;;6.74;65.90;101070.38;4319877;33;33881;-87
2020/12/18 04:42:33;;;;;;;6.22;2.67;;;;;;;6.64;66.12;101066.53;4331256;33;33134;-87
2020/12/18 04:45:03;;;;;;;3.45;2.25;;;;;;;6.48;66.83;101057.81;4307500;33;34842;-87
2020/12/18 04:47:31;;;;;;;3.60;2.05;;;;;;;6.81;65.92;101053.19;4330044;33;31959;-87
2020/12/18 04:50:02;;;;;;;3.87;3.33;;;;;;;6.69;66.37;101068.91;4307701;33;34059;-87
2020/12/18 04:52:31;;;;;;;6.15;2.97;;;;;;;6.91;65.77;101070.22;4330695;33;34557;-87
2020/12/18 04:55:00;;;;;;;5.78;5.18;;;;;;;6.83;66.29;101064.56;4318298;33;34356;-87
2020/12/18 04:57:33;;;;;;;7.05;3.67;;;;;;;6.77;66.57;101064.03;4320029;33;33100;-87
2020/12/18 05:00:05;;;;;;;1.92;1.80;;;;;;;6.56;67.30;101070.56;4294885;33;33019;-87
2020/12/18 05:02:39;;;;;;;4.95;3.17;;;;;;;6.76;66.56;101068.50;4323419;33;33226;-87
2020/12/18 05:05:10;;;;;;;3.72;2.95;;;;;;;6.72;66.72;101074.03;4330935;33;34096;-87
2020/12/18 05:07:38;;;;;;;5.87;2.53;;;;;;;6.93;65.94;101073.66;4332505;33;33438;-87
2020/12/18 05:10:08;;;;;;;2.22;2.05;;;;;;;6.52;67.06;101071.72;4319628;33;33527;-87
2020/12/18 05:12:37;;;;;;;4.60;2.95;;;;;;;6.54;66.76;101073.28;4320387;33;34276;-87
2020/12/18 05:15:07;;;;;;;7.57;2.75;;;;;;;6.39;67.06;101079.47;4345317;33;34840;-87
2020/12/18 05:17:38;;;;;;;5.85;2.67;;;;;;;6.23;67.93;101081.28;4332088;33;34116;-87
2020/12/18 05:20:07;;;;;;;7.32;3.50;;;;;;;6.59;66.55;101075.69;4333227;33;33313;-87
2020/12/18 05:22:37;;;;;;;3.67;2.15;;;;;;;6.39;67.41;101082.13;4320959;33;35767;-87
2020/12/18 05:25:05;;;;;;;5.25;2.60;;;;;;;6.75;66.19;101072.06;4334333;33;34078;-87
2020/12/18 05:27:34;;;;;;;2.87;2.65;;;;;;;6.69;66.46;101077.72;4341428;32;32894;-87
2020/12/18 05:30:06;;;;;;;7.57;3.78;;;;;;;6.63;66.49;101080.69;4326722;33;33853;-87
2020/12/18 05:32:51;;;;;;;8.30;3.95;;;;;;;6.86;65.62;101084.66;4339822;33;35109;-86
2020/12/18 05:35:19;;;;;;;9.50;3.30;;;;;;;6.58;66.09;101080.13;4309050;33;33311;-88
2020/12/18 05:37:47;;;;;;;3.67;2.37;;;;;;;6.73;65.71;101089.81;4333907;33;33324;-87
2020/12/18 05:40:15;;;;;;;6.20;3.30;;;;;;;6.91;65.15;101090.53;4320383;33;34612;-91
2020/12/18 05:42:47;;;;;;;2.62;1.77;;;;;;;6.79;65.38;101096.56;4333361;33;35040;-90
2020/12/18 05:45:18;;;;;;;7.43;3.12;;;;;;;6.78;65.32;101098.34;4316302;33;33808;-91
2020/12/18 05:47:55;;;;;;;4.05;2.28;;;;;;;6.94;64.58;101106.22;4332320;33;33148;-90
2020/12/18 05:50:32;;;;;;;4.72;2.83;;;;;;;6.79;64.63;101102.69;4333224;33;33153;-89
2020/12/18 05:53:02;;;;;;;4.57;2.65;;;;;;;6.79;64.62;101105.31;4346064;33;34722;-89
2020/12/18 05:55:41;;;;;;;11.38;3.85;;;;;;;6.70;65.11;101102.38;4320435;33;32832;-89
2020/12/18 05:58:13;;;;;;;5.20;1.52;;;;;;;6.74;65.09;101112.69;4321545;33;33248;-89
2020/12/18 06:00:42;;;;;;;4.22;2.60;;;;;;;6.73;65.22;101115.41;4325707;33;32786;-89
2020/12/18 06:03:16;;;;;;;6.15;2.33;;;;;;;6.76;65.29;101125.81;4321360;33;34853;-89
2020/12/18 06:20:35;;;;;;;;;;;;;;;6.72;65.37;101132.22;4335062;33;34189;-88
2020/12/18 06:23:08;;;;;;;2.75;2.15;;;;;;;6.82;65.13;101134.22;4308492;33;32994;-91
2020/12/18 06:25:51;;;;;;;2.80;2.42;;;;;;;6.80;65.17;101143.22;4334733;33;34978;-89
2020/12/18 06:28:23;;;;;;;5.10;2.83;;;;;;;6.69;65.59;101141.19;4332932;33;33785;-88
2020/12/18 06:31:30;;;;;;;4.62;2.50;;;;;;;6.79;65.33;101144.16;4322520;33;33236;-91
2020/12/18 06:34:28;;;;;;;4.70;2.12;;;;;;;6.68;66.05;101155.34;4322878;33;33058;-88
2020/12/18 06:37:08;;;;;;;3.33;2.40;;;;;;;6.47;66.63;101147.75;4322694;33;34902;-88
2020/12/18 06:39:57;;;;;;;4.87;3.28;;;;;;;6.56;66.41;101155.19;4333187;33;34241;-89
2020/12/18 06:42:49;;;;;;;9.57;4.25;;;;;;;6.17;67.50;101152.94;4322352;33;31884;-91
2020/12/18 06:45:25;;;;;;;3.95;3.03;;;;;;;6.64;66.05;101159.09;4333556;33;33038;-88
2020/12/18 06:48:32;;;;;;;5.18;2.67;;;;;;;6.43;66.59;101160.28;4333712;33;35446;-89
2020/12/18 06:51:45;;;;;;;4.05;3.65;;;;;;;6.49;66.81;101161.75;4333804;33;34800;-89
2020/12/18 06:54:55;;;;;;;8.15;3.97;;;;;;;6.35;67.55;101166.97;4333376;33;34405;-88
2020/12/18 06:57:32;;;;;;;3.45;3.25;;;;;;;6.53;66.77;101164.12;4333153;33;33238;-91
2020/12/18 07:00:23;;;;;;;6.20;3.65;;;;;;;6.70;66.29;101166.69;4324661;33;34809;-90
2020/12/18 07:03:02;;;;;;;2.80;2.20;;;;;;;6.74;66.13;101173.53;4333574;33;34641;-90
2020/12/18 07:05:47;;;;;;;5.35;4.95;;;;;;;6.67;66.57;101166.00;4334595;33;32737;-91
2020/12/18 07:08:19;;;;;;;6.78;5.95;;;;;;;6.55;67.12;101170.19;4332742;33;34634;-90
2020/12/18 07:11:02;;;;;;;4.20;2.28;;;;;;;6.39;67.34;101179.06;4309265;33;34628;-90
2020/12/18 07:14:02;;;;;;;8.68;3.55;;;;;;;6.27;67.85;101172.66;4322556;33;34280;-90
2020/12/18 07:16:53;;;;;;;3.70;2.05;;;;;;;6.25;67.99;101176.31;4334047;33;33328;-90
2020/12/18 07:19:50;;;;;;;4.65;2.70;;;;;;;6.24;68.05;101172.81;4333257;33;34769;-90
2020/12/18 07:22:28;;;;;;;7.80;2.47;;;;;;;6.19;68.24;101166.94;4329653;33;34159;-90
2020/12/18 07:25:12;;;;;;;6.87;5.78;;;;;;;6.01;68.91;101165.31;4315796;33;32860;-91
2020/12/18 07:27:45;;;;;;;4.30;3.92;;;;;;;6.39;67.66;101161.41;4333049;33;33982;-90
2020/12/18 07:30:27;;;;;;;6.97;3.53;;;;;;;6.21;67.96;101167.72;4332728;33;33911;-90
2020/12/18 07:33:02;;;;;;;;;;;;;;;6.56;67.31;101161.34;4310021;33;34065;-90
2020/12/18 07:35:54;;;;;;;4.43;3.50;;;;;;;6.77;66.52;101165.41;4331923;33;33970;-90
2020/12/18 07:38:28;;;;;;;4.95;2.40;;;;;;;6.62;66.36;101168.06;4332733;33;32786;-90
2020/12/18 07:41:17;;;;;;;3.20;2.90;;;;;;;6.48;67.30;101175.91;4332804;33;34178;-90
2020/12/18 07:43:46;;;;;;;5.75;3.25;;;;;;;6.32;68.09;101173.25;4333079;33;33531;-91
2020/12/18 07:46:30;;;;;;;9.75;3.80;;;;;;;6.58;67.27;101172.66;4332902;33;34420;-91
2020/12/18 07:49:11;;;;;;;8.43;2.92;;;;;;;6.30;68.09;101182.19;4320984;33;34129;-91
2020/12/18 07:52:06;;;;;;;2.10;1.95;;;;;;;6.42;67.53;101184.19;4332817;33;33121;-91
2020/12/18 07:54:44;;;;;;;6.00;2.33;;;;;;;6.13;68.13;101188.41;4333676;33;33727;-90
2020/12/18 07:57:23;;;;;;;4.70;2.75;;;;;;;6.11;68.79;101184.12;4329408;33;33365;-91
2020/12/18 08:00:16;;;;;;;8.15;4.25;;;;;;;6.05;69.09;101187.13;4317051;33;33071;-90
2020/12/18 08:03:13;;;;;;;3.83;3.53;;;;;;;6.11;68.80;101194.69;4342701;33;32822;-91
2020/12/18 08:05:57;;;;;;;7.57;4.03;;;;;;;6.22;68.17;101187.91;4317800;33;34877;-92
2020/12/18 08:08:59;;;;;;;8.05;4.03;;;;;;;6.17;68.28;101191.75;4319703;33;34353;-91
2020/12/18 08:11:42;;;;;;;3.55;2.15;;;;;;;6.14;68.58;101187.47;4306447;33;32054;-91
2020/12/18 08:14:39;;;;;;;5.25;3.97;;;;;;;6.12;68.06;101196.41;4309317;33;33616;-91
2020/12/18 08:17:30;;;;;;;6.93;4.97;;;;;;;6.38;67.25;101201.12;4328544;33;36212;-90
2020/12/18 08:20:06;;;;;;;8.05;2.75;;;;;;;6.44;67.40;101204.28;4331518;33;32875;-90
2020/12/18 08:23:02;;;;;;;3.40;1.50;;;;;;;6.18;68.45;101206.66;4339483;33;32882;-91
2020/12/18 08:25:59;;;;;;;5.82;2.15;;;;;;;5.92;68.59;101210.69;4322497;33;32294;-91
2020/12/18 08:28:54;;;;;;;1.55;1.42;;;;;;;5.52;70.50;101216.28;4332444;33;35479;-91
2020/12/18 08:32:02;;;;;;;3.25;2.40;;;;;;;5.92;68.59;101208.06;4324279;33;34154;-91
2020/12/18 08:35:04;;;;;;;10.20;4.00;;;;;;;5.67;69.94;101212.87;4321755;33;32540;-91
2020/12/18 08:37:51;;;;;;;5.20;3.67;;;;;;;6.10;68.49;101215.00;4331959;33;33916;-90
2020/12/18 08:40:24;;;;;;;3.03;2.17;;;;;;;6.12;67.75;101217.53;4319585;33;33387;-90
2020/12/18 08:43:13;;;;;;;1.92;1.67;;;;;;;5.84;69.07;101212.00;4321685;33;34102;-90
2020/12/18 08:46:30;;;;;;;4.78;2.28;;;;;;;6.30;67.91;101214.78;4333146;33;33250;-90
2020/12/18 08:49:27;;;;;;;4.60;3.20;;;;;;;6.10;68.61;101208.84;4334239;33;33161;-90
2020/12/18 08:52:09;;;;;;;7.72;3.28;;;;;;;6.19;68.21;101211.88;4334658;33;33628;-91
2020/12/18 08:55:30;;;;;;;7.32;3.25;;;;;;;6.34;67.53;101218.09;4321655;33;33757;-90
2020/12/18 08:58:14;;;;;;;4.75;3.17;;;;;;;6.61;66.63;101222.72;4313090;33;32145;-90
2020/12/18 09:00:48;;;;;;;7.18;3.55;;;;;;;6.65;66.82;101219.00;4331889;33;33524;-90
2020/12/18 09:03:44;;;;;;;5.50;3.80;;;;;;;6.81;66.38;101214.53;4333254;33;34936;-90
2020/12/18 09:06:21;;;;;;;7.28;3.83;;;;;;;6.72;66.51;101217.69;4297435;33;33062;-90
2020/12/18 09:09:06;;;;;;;8.85;3.03;;;;;;;6.54;67.04;101218.69;4332344;33;32681;-90
2020/12/18 09:12:17;;;;;;;4.85;3.92;;;;;;;6.30;67.71;101220.06;4333609;33;35203;-90
2020/12/18 09:14:48;;;;;;;4.40;4.00;;;;;;;6.61;66.60;101221.88;4318658;33;34858;-90
2020/12/18 09:17:42;;;;;;;2.85;2.37;;;;;;;5.96;68.48;101221.94;4296880;33;33815;-90
2020/12/18 09:20:33;;;;;;;1.80;1.55;;;;;;;6.34;67.33;101224.22;4294978;33;32805;-90
2020/12/18 09:23:30;;;;;;;10.05;3.45;;;;;;;5.67;69.97;101223.44;4302240;33;33419;-89
2020/12/18 09:26:31;;;;;;;6.22;3.55;;;;;;;5.81;69.47;101225.38;4306278;33;33557;-90
2020/12/18 09:29:21;;;;;;;3.10;2.53;;;;;;;6.18;68.39;101222.50;4318866;33;34015;-90
2020/12/18 09:32:00;;;;;;;3.40;2.30;;;;;;;6.33;67.65;101219.87;4315553;33;33496;-90
2020/12/18 09:34:55;;;;;;;4.20;2.67;;;;;;;6.04;68.76;101220.59;4306192;33;33447;-90
2020/12/18 09:37:33;;;;;;;;;;;;;;;6.32;67.46;101225.25;4307872;33;34591;-90
2020/12/18 09:40:27;;;;;;;6.65;3.83;;;;;;;6.51;67.12;101220.69;4306353;33;33634;-90
2020/12/18 09:43:21;;;;;;;5.45;3.80;;;;;;;6.68;67.10;101221.44;4306408;33;32428;-90
2020/12/18 09:46:15;;;;;;;1.87;1.75;;;;;;;6.17;67.47;101226.94;4296437;33;32385;-90
2020/12/18 09:48:47;;;;;;;5.75;3.92;;;;;;;6.36;67.01;101229.44;4307399;33;34640;-90
2020/12/18 09:51:25;;;;;;;6.62;3.50;;;;;;;6.46;66.91;101226.22;4294675;33;33627;-90
2020/12/18 09:54:23;;;;;;;3.15;2.75;;;;;;;6.23;67.73;101226.59;4309607;33;32923;-90
2020/12/18 09:57:18;;;;;;;3.08;2.87;;;;;;;5.86;68.92;101226.84;4309566;33;33189;-91
2020/12/18 09:59:55;;;;;;;7.53;2.03;;;;;;;6.36;67.51;101219.72;4307252;33;34980;-90
2020/12/18 10:02:28;;;;;;;3.60;3.30;;;;;;;6.30;67.99;101217.41;4307191;33;33022;-91
2020/12/18 10:05:04;;;;;;;3.33;2.92;;;;;;;6.51;67.16;101218.03;4304130;33;31681;-90
2020/12/18 10:07:57;;;;;;;3.47;2.67;;;;;;;6.34;67.75;101216.31;4308191;33;33203;-91
2020/12/18 10:10:52;;;;;;;4.60;2.33;;;;;;;6.49;67.17;101217.25;4306508;33;34435;-90
2020/12/18 10:13:41;;;;;;;1.87;1.75;;;;;;;6.48;67.10;101215.56;4308385;33;34860;-90
2020/12/18 10:16:35;;;;;;;4.40;2.65;;;;;;;6.13;68.34;101217.47;4319362;33;32601;-90
2020/12/18 10:19:19;;;;;;;3.83;2.55;;;;;;;6.39;67.75;101219.56;4307051;33;32408;-90
2020/12/18 10:22:13;;;;;;;2.90;2.70;;;;;;;6.53;66.95;101222.28;4331839;33;33564;-91
2020/12/18 10:25:34;;;;;;;9.20;2.83;;;;;;;6.53;67.00;101219.66;4318708;33;34103;-90
2020/12/18 10:28:04;;;;;;;6.30;2.42;;;;;;;6.47;66.55;101222.66;4333140;33;33558;-91
2020/12/18 10:30:40;;;;;;;4.95;2.95;;;;;;;6.59;66.46;101227.25;4344788;33;33737;-91
2020/12/18 10:33:21;;;;;;;5.55;3.28;;;;;;;6.65;66.24;101231.34;4332453;33;34385;-92
2020/12/18 10:36:35;;;;;;;7.53;2.45;;;;;;;6.85;65.35;101226.66;4324314;33;34517;-91
2020/12/18 10:39:32;;;;;;;5.18;1.50;;;;;;;6.65;66.19;101226.91;4323321;33;36129;-92
2020/12/18 10:42:29;;;;;;;4.95;4.32;;;;;;;6.79;66.02;101219.06;4332830;33;33954;-91
2020/12/18 10:45:34;;;;;;;5.20;4.05;;;;;;;6.49;66.78;101217.25;4332280;33;34125;-90
2020/12/18 10:48:28;;;;;;;3.35;3.05;;;;;;;6.67;65.96;101216.25;4333015;33;33956;-91
2020/12/18 10:51:09;;;;;;;4.37;3.17;;;;;;;6.80;66.06;101219.91;4342669;33;34533;-90
2020/12/18 10:54:24;;;;;;;;;;;;;;;6.90;65.80;101210.53;4332271;33;32690;-91
2020/12/18 10:57:18;;;;;;;2.28;2.08;;;;;;;6.96;65.61;101208.38;4331060;33;33924;-90
2020/12/18 11:00:10;;;;;;;3.55;3.12;;;;;;;6.85;65.57;101209.91;4333101;33;34579;-92
2020/12/18 11:02:46;;;;;;;10.43;3.87;;;;;;;7.06;65.33;101206.91;4321626;33;32191;-90
2020/12/18 11:05:40;;;;;;;3.50;3.03;;;;;;;6.80;66.53;101201.41;4332964;33;34084;-91
2020/12/18 11:08:19;;;;;;;3.28;2.42;;;;;;;6.85;65.94;101201.97;4320379;33;34720;-90
2020/12/18 11:11:29;;;;;;;3.90;3.30;;;;;;;6.89;65.61;101192.94;4334044;33;34288;-90
2020/12/18 11:14:11;;;;;;;5.35;2.65;;;;;;;6.69;66.12;101187.91;4333063;33;32829;-90
2020/12/18 11:17:00;;;;;;;2.00;1.85;;;;;;;7.18;65.29;101186.84;4332716;33;33264;-90
2020/12/18 11:20:22;;;;;;;5.12;3.47;;;;;;;6.70;66.52;101182.53;4318289;33;33777;-90
2020/12/18 11:23:06;;;;;;;4.28;3.87;;;;;;;7.01;65.54;101193.06;4332419;33;33723;-91
2020/12/18 11:25:57;;;;;;;5.78;4.12;;;;;;;6.92;66.10;101188.31;4335138;33;33095;-90
2020/12/18 11:28:50;;;;;;;4.35;3.58;;;;;;;7.16;65.56;101186.06;4323444;33;33523;-90
2020/12/18 11:31:48;;;;;;;5.60;2.55;;;;;;;6.86;66.35;101190.47;4308778;33;34648;-90
2020/12/18 11:34:30;;;;;;;6.40;2.30;;;;;;;7.01;65.61;101193.06;4318426;33;34160;-90
2020/12/18 11:37:11;;;;;;;3.55;2.05;;;;;;;7.11;65.33;101183.69;4325835;33;33696;-89
2020/12/18 11:39:40;;;;;;;2.62;2.00;;;;;;;7.28;64.46;101183.53;4332996;33;34234;-89
2020/12/18 11:42:13;;;;;;;4.45;3.47;;;;;;;7.12;64.98;101182.75;4318204;33;35435;-89
2020/12/18 11:44:48;;;;;;;8.05;3.65;;;;;;;7.24;64.69;101182.03;4319104;33;34051;-89
2020/12/18 11:47:30;;;;;;;5.53;2.35;;;;;;;6.63;67.02;101182.97;4332809;33;33012;-89
2020/12/18 11:50:20;;;;;;;;;;;;;;;7.28;64.90;101177.41;4333118;33;33054;-89
2020/12/18 11:52:51;;;;;;;4.87;1.92;;;;;;;7.21;64.86;101181.34;4344314;33;33946;-90
2020/12/18 11:56:02;;;;;;;4.25;1.80;;;;;;;6.73;66.43;101190.28;4324700;33;32646;-91
2020/12/18 11:58:41;;;;;;;3.55;1.75;;;;;;;6.90;65.65;101187.56;4310579;33;32648;-91
2020/12/18 12:01:21;;;;;;;2.87;2.58;;;;;;;6.86;65.65;101187.81;4332664;33;33052;-89
2020/12/18 12:04:00;;;;;;;6.80;2.45;;;;;;;6.88;66.33;101188.59;4321700;33;33519;-89
2020/12/18 12:06:53;;;;;;;2.30;1.65;;;;;;;6.98;65.23;101195.06;4332697;33;33498;-89
2020/12/18 12:09:37;;;;;;;2.87;2.12;;;;;;;7.15;64.59;101192.28;4310374;33;32727;-89
2020/12/18 12:12:35;;;;;;;6.57;2.45;;;;;;;6.80;65.50;101191.66;4333348;33;34896;-89
2020/12/18 12:15:49;;;;;;;4.15;3.78;;;;;;;6.92;65.45;101190.13;4341469;33;35235;-90
2020/12/18 12:18:45;;;;;;;3.72;2.62;;;;;;;7.10;64.89;101189.06;4333458;33;34103;-92
2020/12/18 12:21:21;;;;;;;1.55;1.37;;;;;;;7.23;64.01;101185.63;4333722;33;32956;-90
2020/12/18 12:24:35;;;;;;;4.97;3.42;;;;;;;7.02;64.38;101184.22;4319275;33;35164;-90
2020/12/18 12:27:28;;;;;;;3.35;2.47;;;;;;;7.17;63.96;101183.31;4320178;33;36299;-90
2020/12/18 12:30:11;;;;;;;2.47;2.28;;;;;;;7.34;63.09;101185.84;4321303;33;32682;-91
2020/12/18 12:33:17;;;;;;;4.55;2.58;;;;;;;7.13;63.63;101189.75;4313918;33;33054;-91
2020/12/18 12:36:03;;;;;;;3.45;1.98;;;;;;;7.19;64.57;101180.59;4322367;33;33706;-91
2020/12/18 12:38:55;;;;;;;2.62;1.67;;;;;;;7.06;63.77;101191.03;4312121;33;34538;-90
2020/12/18 12:41:51;;;;;;;4.37;2.00;;;;;;;6.84;64.29;101190.56;4313817;33;35497;-91
2020/12/18 12:44:52;;;;;;;1.98;1.87;;;;;;;6.87;64.28;101189.50;4322668;33;32844;-90
2020/12/18 12:47:38;;;;;;;12.77;3.33;;;;;;;6.76;64.58;101191.91;4321464;33;34330;-90